Waldheim, Canada
Current Conditions -  °F | °C
As of 12:00 PM on Thursday 27 Nov 2014 (Local Time) from CYXE Reporting Station
Light Snow Light Snow  
Wind Chill: -22°   Ceiling: 600
Heat Index: -13°   Visibility: 2mi
Dew Point: -15°   Wind: 14mph
Humidity: 85%   Direction: 50°NE
Pressure: 30.06"   Gusts: NA
Location:  52.62°N, 106.65°W
Report Text: CYXE 271800Z 05012KT 2SM -SN DRSN OVC006 M13/M15 A3006 RMK SC8 SLP225
Loading
Personal Weather Stations






























Interactive Weather Map New forecast layout! Learn more

10-Day Weather Forecast

Advertisements
Track Severe Weather on mobile